Lake Placid, NY (12946)

11:31 AM EST on February 19, 2017 (GMT -0500)
Lake Placid, NY - Outer Averyville Lane | | Change Station

Elev 2037 ft 44.25 °N, 74.04 °W | Updated 10 seconds ago

Partly Cloudy
Partly Cloudy
42.1 °F
Feels Like 35 °F
N
12.6
Wind Variable Wind from West
Gusts 20.0 mph

Today
High -- | Low -- °F
--% Chance of Precip.
Yesterday
High -- | Low -- °F
Precip. -- in
Pressure 29.71 in
Visibility 10.0 miles
Clouds Few 3300 ft
Windchill 35 °F
Dew Point 32 °F
Humidity 68%
Rainfall 0.00 in
Snow Depth Not available.
6:49 AM 5:31 PM
Last Quarter, 42% visible
METAR KSLK 191551Z AUTO 28008G17KT 250V340 10SM FEW033 07/00 A2968 RMK AO2 SLP059 T00670000
Pressure 29.71 in
Visibility 10.0 miles
Clouds Few 3300 ft
Windchill 35 °F
Dew Point 32 °F
Humidity 68%
Rainfall 0.00 in
Snow Depth Not available.
6:49 AM 5:31 PM
Last Quarter, 42% visible
METAR KSLK 191551Z AUTO 28008G17KT 250V340 10SM FEW033 07/00 A2968 RMK AO2 SLP059 T00670000

Get Your Daily Forecast Email!

Thanks for signing up!

Be on the lookout for a verification email in your inbox.

You'll start receiving the daily forecast at 8 AM.

×

10-Day Weather Forecast

Almanac

Astronomy

Feb. 19, 2017 Rise Set
Actual Time
Civil Twilight
Nautical Twilight
Astronomical Twilight
Moon
Length of Visible Light
Length of Day
Tomorrow will be .
, % of the Moon is Illuminated

Today's Extremes

State Highs State Lows

Community

WunderPhotos

Upload Photos

1,962,540 photos uploaded!

WunderBlog® & News

Nearby

Air Quality

  Air Quality AQ Index Pollutant
Not available.

Snow Depth

Station Depth Elevation

Earthquake Activity

City Distance Mag. Time & Date
Minimum magnitude displayed is 2.5.

Coastal Water Temperatures

Place Temperature

Stations

Nearby Weather Stations

Station Location Temp. Windchill Dew Point Humidity Wind Precip. Elev Updated Type
                   

Watches & Warnings

There are currently no watches in effect.